Time;durP1;ratioP1;P1;durP2;ratioP2;P2;SDS_P1;SDS_P2;PMS_P1;PMS_P2;Temp;Humidity;BMP_temperature;BMP_pressure;BME280_temperature;BME280_humidity;BME280_pressure;Samples;Min_cycle;Max_cycle;Signal;HPM_P1;HPM_P2
2023/09/11 00:01:28;;;;;;;10.50;10.00;;;;;;;;;;5086131;28;20016;-60
2023/09/11 00:03:54;;;;;;;10.73;10.23;;;;;;;;;;5089351;28;20403;-60
2023/09/11 00:06:19;;;;;;;11.10;10.60;;;;;;;;;;5087473;28;20488;-60
2023/09/11 00:08:44;;;;;;;10.85;10.35;;;;;;;;;;5082927;28;20020;-60
2023/09/11 00:11:10;;;;;;;10.90;10.40;;;;;;;;;;5087029;28;20028;-61
2023/09/11 00:13:35;;;;;;;10.70;10.20;;;;;;;;;;5084415;28;20519;-60
2023/09/11 00:16:00;;;;;;;10.32;9.82;;;;;;;;;;5088434;28;20164;-63
2023/09/11 00:18:26;;;;;;;11.07;10.57;;;;;;;;;;5087099;28;20038;-60
2023/09/11 00:20:52;;;;;;;10.43;9.93;;;;;;;;;;5082480;28;20020;-61
2023/09/11 00:23:17;;;;;;;10.60;10.10;;;;;;;;;;5085721;28;20030;-59
2023/09/11 00:25:43;;;;;;;10.75;10.25;;;;;;;;;;5092406;28;20387;-60
2023/09/11 00:28:08;;;;;;;10.88;10.38;;;;;;;;;;5089188;28;20033;-60
2023/09/11 00:30:35;;;;;;;10.70;10.20;;;;;;;;;;5085674;28;20024;-60
2023/09/11 00:33:00;;;;;;;10.73;10.23;;;;;;;;;;5086631;28;20026;-61
2023/09/11 00:35:26;;;;;;;10.65;10.15;;;;;;;;;;5089998;28;20020;-60
2023/09/11 00:37:51;;;;;;;11.07;10.57;;;;;;;;;;5090286;28;20479;-60
2023/09/11 00:40:16;;;;;;;10.45;9.95;;;;;;;;;;5085452;28;20475;-59
2023/09/11 00:42:42;;;;;;;10.73;10.23;;;;;;;;;;5086526;28;20531;-59
2023/09/11 00:45:07;;;;;;;10.52;10.02;;;;;;;;;;5090541;28;20024;-60
2023/09/11 00:47:32;;;;;;;10.32;9.82;;;;;;;;;;5088783;28;20118;-61
2023/09/11 00:49:58;;;;;;;10.60;10.10;;;;;;;;;;5086802;28;20028;-59
2023/09/11 00:52:24;;;;;;;10.40;9.90;;;;;;;;;;5090796;28;20100;-60
2023/09/11 00:54:51;;;;;;;10.68;10.18;;;;;;;;;;5085096;28;20032;-62
2023/09/11 00:57:18;;;;;;;11.00;10.50;;;;;;;;;;5085314;28;20072;-59
2023/09/11 00:59:48;;;;;;;10.85;10.35;;;;;;;;;;5087139;28;20020;-59
2023/09/11 01:02:14;;;;;;;10.65;10.15;;;;;;;;;;5082481;28;20441;-60
2023/09/11 01:04:40;;;;;;;10.60;10.10;;;;;;;;;;5087793;28;20082;-62
2023/09/11 01:07:06;;;;;;;11.25;10.75;;;;;;;;;;5088123;28;20387;-60
2023/09/11 01:09:35;;;;;;;10.80;10.30;;;;;;;;;;5089825;28;20024;-60
2023/09/11 01:12:00;;;;;;;10.48;9.98;;;;;;;;;;5090622;28;20031;-59
2023/09/11 01:14:26;;;;;;;11.02;10.52;;;;;;;;;;5086908;28;20028;-60
2023/09/11 01:16:59;;;;;;;11.00;10.50;;;;;;;;;;5090900;28;20039;-61
2023/09/11 01:19:43;;;;;;;10.38;9.88;;;;;;;;;;5082810;27;20481;-59
2023/09/11 01:22:14;;;;;;;10.85;10.35;;;;;;;;;;5090648;28;20016;-59
2023/09/11 01:24:53;;;;;;;10.55;10.05;;;;;;;;;;5085587;28;20067;-60
2023/09/11 01:27:22;;;;;;;10.93;10.43;;;;;;;;;;5085965;28;20027;-61
2023/09/11 01:29:48;;;;;;;10.20;9.75;;;;;;;;;;5085760;28;20050;-60
2023/09/11 01:32:15;;;;;;;10.82;10.32;;;;;;;;;;5088251;28;20020;-59
2023/09/11 01:34:40;;;;;;;10.65;10.15;;;;;;;;;;5084725;28;20383;-61
2023/09/11 01:37:05;;;;;;;10.93;10.43;;;;;;;;;;5087346;28;20024;-60
2023/09/11 01:39:31;;;;;;;10.45;9.95;;;;;;;;;;5083766;28;20023;-61
2023/09/11 01:42:00;;;;;;;10.75;10.25;;;;;;;;;;5089801;28;20024;-60
2023/09/11 01:44:55;;;;;;;11.25;10.75;;;;;;;;;;5084114;28;20095;-60
2023/09/11 01:47:21;;;;;;;10.25;9.75;;;;;;;;;;5078215;28;20062;-60
2023/09/11 01:49:47;;;;;;;10.63;10.13;;;;;;;;;;5091084;28;20487;-60
2023/09/11 01:52:13;;;;;;;10.50;10.00;;;;;;;;;;5089539;28;20115;-60
2023/09/11 01:54:39;;;;;;;10.68;10.18;;;;;;;;;;5082188;28;20031;-61
2023/09/11 01:57:05;;;;;;;11.02;10.52;;;;;;;;;;5087464;28;20027;-60
2023/09/11 01:59:30;;;;;;;10.55;10.05;;;;;;;;;;5082294;28;20024;-61
2023/09/11 02:01:55;;;;;;;10.18;9.73;;;;;;;;;;5087746;28;20020;-61
2023/09/11 02:04:21;;;;;;;10.45;9.95;;;;;;;;;;5089309;28;20037;-60
2023/09/11 02:06:47;;;;;;;11.02;10.52;;;;;;;;;;5084973;28;20058;-60
2023/09/11 02:09:12;;;;;;;10.88;10.38;;;;;;;;;;5084771;28;20506;-60
2023/09/11 02:11:38;;;;;;;10.05;9.65;;;;;;;;;;5085874;28;20032;-60
2023/09/11 02:14:03;;;;;;;10.30;9.80;;;;;;;;;;5081952;28;20035;-60
2023/09/11 02:16:29;;;;;;;11.02;10.52;;;;;;;;;;5085640;28;20043;-59
2023/09/11 02:18:54;;;;;;;10.70;10.20;;;;;;;;;;5084701;28;20139;-61
2023/09/11 02:21:20;;;;;;;10.80;10.30;;;;;;;;;;5088331;28;20666;-61
2023/09/11 02:23:46;;;;;;;10.98;10.48;;;;;;;;;;5083173;28;20033;-61
2023/09/11 02:26:11;;;;;;;10.50;10.00;;;;;;;;;;5087852;28;20114;-60
2023/09/11 02:28:37;;;;;;;10.73;10.23;;;;;;;;;;5088073;28;20035;-59
2023/09/11 02:31:02;;;;;;;10.32;9.82;;;;;;;;;;5085352;28;20027;-59
2023/09/11 02:33:27;;;;;;;10.65;10.15;;;;;;;;;;5086891;28;20031;-61
2023/09/11 02:35:56;;;;;;;12.65;12.02;;;;;;;;;;5087411;28;20034;-60
2023/09/11 02:38:22;;;;;;;10.38;9.88;;;;;;;;;;5086110;28;20120;-59
2023/09/11 02:40:47;;;;;;;10.65;10.15;;;;;;;;;;5083817;28;20106;-59
2023/09/11 02:43:12;;;;;;;10.85;10.35;;;;;;;;;;5088012;28;20020;-60
2023/09/11 02:45:38;;;;;;;11.25;10.75;;;;;;;;;;5089478;28;20081;-62
2023/09/11 02:48:03;;;;;;;10.55;10.05;;;;;;;;;;5085522;28;20402;-60
2023/09/11 02:50:28;;;;;;;10.80;10.30;;;;;;;;;;5087289;28;20028;-61
2023/09/11 02:52:54;;;;;;;11.25;10.75;;;;;;;;;;5088564;28;20539;-59
2023/09/11 02:55:19;;;;;;;11.10;10.60;;;;;;;;;;5083771;28;20034;-59
2023/09/11 02:57:44;;;;;;;10.60;10.10;;;;;;;;;;5083179;28;20073;-61
2023/09/11 03:00:10;;;;;;;11.02;10.52;;;;;;;;;;5084031;28;21823;-60
2023/09/11 03:02:35;;;;;;;10.60;10.10;;;;;;;;;;5085288;28;20108;-60
2023/09/11 03:05:01;;;;;;;10.52;10.02;;;;;;;;;;5083874;28;20044;-61
2023/09/11 03:07:26;;;;;;;10.80;10.30;;;;;;;;;;5077677;28;21343;-60
2023/09/11 03:09:51;;;;;;;11.35;10.85;;;;;;;;;;5086779;28;20528;-59
2023/09/11 03:12:17;;;;;;;10.80;10.30;;;;;;;;;;5084420;28;20111;-60
2023/09/11 03:14:42;;;;;;;11.00;10.50;;;;;;;;;;5085885;28;20379;-61
2023/09/11 03:17:09;;;;;;;11.10;10.60;;;;;;;;;;5078921;28;20031;-61
2023/09/11 03:19:35;;;;;;;11.20;10.70;;;;;;;;;;5087488;28;20433;-59
2023/09/11 03:22:00;;;;;;;10.85;10.35;;;;;;;;;;5088721;28;20023;-60
2023/09/11 03:24:26;;;;;;;10.40;9.90;;;;;;;;;;5084229;28;20020;-60
2023/09/11 03:26:51;;;;;;;10.40;9.90;;;;;;;;;;5085617;28;20027;-61
2023/09/11 03:29:17;;;;;;;10.73;10.23;;;;;;;;;;5085153;28;20020;-60
2023/09/11 03:31:42;;;;;;;10.70;10.20;;;;;;;;;;5082273;28;20509;-61
2023/09/11 03:34:08;;;;;;;10.75;10.25;;;;;;;;;;5082968;28;20024;-59
2023/09/11 03:36:33;;;;;;;10.70;10.20;;;;;;;;;;5083565;28;20020;-61
2023/09/11 03:38:58;;;;;;;10.63;10.13;;;;;;;;;;5087462;28;20027;-59
2023/09/11 03:41:23;;;;;;;10.88;10.38;;;;;;;;;;5080727;28;20030;-61
2023/09/11 03:43:49;;;;;;;10.93;10.43;;;;;;;;;;5081545;28;20032;-60
2023/09/11 03:46:14;;;;;;;11.18;10.68;;;;;;;;;;5082850;28;20045;-61
2023/09/11 03:48:40;;;;;;;10.65;10.15;;;;;;;;;;5087381;28;20118;-61
2023/09/11 03:51:06;;;;;;;10.75;10.25;;;;;;;;;;5083997;28;20494;-60
2023/09/11 03:53:31;;;;;;;10.40;9.90;;;;;;;;;;5081546;28;20027;-60
2023/09/11 03:55:56;;;;;;;10.63;10.13;;;;;;;;;;5085157;28;20404;-60
2023/09/11 03:58:22;;;;;;;10.80;10.30;;;;;;;;;;5090279;28;20027;-59
2023/09/11 04:00:47;;;;;;;10.40;9.90;;;;;;;;;;5086206;28;20490;-60
2023/09/11 04:03:13;;;;;;;11.00;10.50;;;;;;;;;;5084439;28;20016;-60
2023/09/11 04:05:39;;;;;;;11.00;10.50;;;;;;;;;;5087080;28;20076;-60
2023/09/11 04:08:04;;;;;;;10.98;10.48;;;;;;;;;;5089069;28;20016;-60
2023/09/11 04:10:30;;;;;;;10.77;10.27;;;;;;;;;;5089163;28;20046;-61
2023/09/11 04:12:55;;;;;;;11.00;10.50;;;;;;;;;;5091567;28;20020;-61
2023/09/11 04:15:20;;;;;;;10.85;10.35;;;;;;;;;;5085979;28;20035;-61
2023/09/11 04:17:46;;;;;;;10.93;10.43;;;;;;;;;;5091024;28;20016;-60
2023/09/11 04:20:11;;;;;;;11.80;11.30;;;;;;;;;;5090521;28;20066;-61
2023/09/11 04:22:36;;;;;;;11.27;10.77;;;;;;;;;;5085783;28;20028;-60
2023/09/11 04:25:03;;;;;;;11.10;10.60;;;;;;;;;;5089803;28;20024;-61
2023/09/11 04:27:28;;;;;;;11.77;11.27;;;;;;;;;;5088020;28;20036;-59
2023/09/11 04:29:53;;;;;;;11.10;10.60;;;;;;;;;;5081147;28;20047;-59
2023/09/11 04:32:20;;;;;;;11.18;10.68;;;;;;;;;;5083574;28;20519;-60
2023/09/11 04:34:46;;;;;;;11.43;10.93;;;;;;;;;;5090369;28;20028;-59
2023/09/11 04:37:11;;;;;;;11.80;11.30;;;;;;;;;;5094093;28;20448;-60
2023/09/11 04:39:37;;;;;;;11.68;11.18;;;;;;;;;;5090875;28;20051;-61
2023/09/11 04:42:02;;;;;;;11.85;11.35;;;;;;;;;;5089919;28;20024;-60
2023/09/11 04:44:27;;;;;;;11.68;11.18;;;;;;;;;;5081619;28;20529;-61
2023/09/11 04:46:53;;;;;;;11.85;11.35;;;;;;;;;;5089491;28;20072;-60
2023/09/11 04:49:18;;;;;;;11.73;11.23;;;;;;;;;;5083345;28;20058;-59
2023/09/11 04:51:44;;;;;;;11.60;11.10;;;;;;;;;;5090572;28;20486;-59
2023/09/11 04:54:09;;;;;;;11.70;11.20;;;;;;;;;;5086550;28;20094;-60
2023/09/11 04:56:34;;;;;;;12.18;11.68;;;;;;;;;;5082333;28;20016;-59
2023/09/11 04:59:00;;;;;;;11.68;11.18;;;;;;;;;;5085675;28;20043;-61
2023/09/11 05:01:26;;;;;;;11.82;11.32;;;;;;;;;;5081628;28;20035;-61
2023/09/11 05:03:51;;;;;;;11.68;11.18;;;;;;;;;;5083854;28;20056;-60
2023/09/11 05:06:16;;;;;;;12.20;11.70;;;;;;;;;;5084205;28;20489;-60
2023/09/11 05:08:42;;;;;;;11.90;11.40;;;;;;;;;;5091897;28;20020;-61
2023/09/11 05:11:07;;;;;;;11.88;11.38;;;;;;;;;;5083830;28;20020;-60
2023/09/11 05:13:32;;;;;;;11.93;11.43;;;;;;;;;;5090665;28;20038;-60
2023/09/11 05:15:58;;;;;;;12.00;11.50;;;;;;;;;;5082125;28;20269;-61
2023/09/11 05:18:23;;;;;;;11.70;11.20;;;;;;;;;;5081558;28;20364;-60
2023/09/11 05:20:50;;;;;;;11.77;11.27;;;;;;;;;;5090497;28;20039;-61
2023/09/11 05:23:16;;;;;;;11.82;11.32;;;;;;;;;;5089641;28;20070;-59
2023/09/11 05:25:41;;;;;;;11.90;11.40;;;;;;;;;;5091311;28;20472;-60
2023/09/11 05:28:07;;;;;;;11.98;11.48;;;;;;;;;;5083418;28;21331;-59
2023/09/11 05:30:32;;;;;;;11.95;11.45;;;;;;;;;;5090879;28;20024;-60
2023/09/11 05:32:57;;;;;;;12.02;11.52;;;;;;;;;;5080743;28;20574;-60
2023/09/11 05:35:23;;;;;;;12.10;11.60;;;;;;;;;;5086434;28;20029;-59
2023/09/11 05:37:48;;;;;;;11.82;11.32;;;;;;;;;;5084666;28;20035;-60
2023/09/11 05:40:15;;;;;;;12.30;11.80;;;;;;;;;;5074610;28;20044;-62
2023/09/11 05:42:40;;;;;;;12.15;11.65;;;;;;;;;;5078015;28;20041;-61
2023/09/11 05:45:06;;;;;;;11.77;11.27;;;;;;;;;;5079527;28;20020;-59
2023/09/11 05:47:32;;;;;;;12.45;11.90;;;;;;;;;;5082850;28;20269;-62
2023/09/11 05:50:00;;;;;;;12.05;11.55;;;;;;;;;;5079586;28;20495;-61
2023/09/11 05:52:28;;;;;;;12.60;12.00;;;;;;;;;;5076353;28;20032;-60
2023/09/11 05:54:54;;;;;;;12.45;11.90;;;;;;;;;;5081992;28;20057;-61
2023/09/11 05:57:19;;;;;;;12.57;11.98;;;;;;;;;;5081600;28;20032;-60
2023/09/11 05:59:45;;;;;;;12.60;12.00;;;;;;;;;;5078908;28;20051;-61
2023/09/11 06:02:11;;;;;;;12.50;11.93;;;;;;;;;;5075198;28;20114;-62
2023/09/11 06:04:36;;;;;;;12.20;11.70;;;;;;;;;;5066235;28;20051;-62
2023/09/11 06:07:03;;;;;;;12.20;11.70;;;;;;;;;;5069453;28;20035;-63
2023/09/11 06:09:28;;;;;;;12.27;11.77;;;;;;;;;;5069591;28;20268;-63
2023/09/11 06:11:54;;;;;;;12.68;12.07;;;;;;;;;;5068580;28;21482;-63
2023/09/11 06:14:19;;;;;;;11.77;11.27;;;;;;;;;;5069613;28;20032;-62
2023/09/11 06:16:44;;;;;;;12.25;11.75;;;;;;;;;;5070765;28;20024;-62
2023/09/11 06:19:10;;;;;;;12.10;11.60;;;;;;;;;;5069675;28;20379;-63
2023/09/11 06:21:35;;;;;;;11.87;11.37;;;;;;;;;;5068546;28;20024;-63
2023/09/11 06:24:01;;;;;;;11.93;11.43;;;;;;;;;;5069807;28;20103;-64
2023/09/11 06:26:26;;;;;;;12.10;11.60;;;;;;;;;;5064941;28;20028;-63
2023/09/11 06:28:51;;;;;;;12.07;11.57;;;;;;;;;;5068638;28;20039;-63
2023/09/11 06:31:17;;;;;;;12.17;11.67;;;;;;;;;;5070535;28;20311;-63
2023/09/11 06:33:44;;;;;;;12.10;11.60;;;;;;;;;;5066242;28;20040;-63
2023/09/11 06:36:09;;;;;;;12.02;11.52;;;;;;;;;;5068064;28;20111;-64
2023/09/11 06:38:34;;;;;;;12.20;11.70;;;;;;;;;;5068035;28;20388;-64
2023/09/11 06:41:00;;;;;;;12.27;11.77;;;;;;;;;;5069552;28;20030;-64
2023/09/11 06:43:27;;;;;;;12.63;12.02;;;;;;;;;;5070013;28;20464;-63
2023/09/11 06:45:52;;;;;;;12.38;11.88;;;;;;;;;;5069469;28;20028;-63
2023/09/11 06:48:19;;;;;;;12.25;11.75;;;;;;;;;;5068502;28;20054;-63
2023/09/11 06:50:44;;;;;;;12.15;11.65;;;;;;;;;;5066465;28;20490;-64
2023/09/11 06:53:10;;;;;;;12.40;11.90;;;;;;;;;;5066091;28;20049;-63
2023/09/11 06:55:35;;;;;;;12.02;11.52;;;;;;;;;;5072407;28;20315;-64
2023/09/11 06:58:02;;;;;;;12.60;12.00;;;;;;;;;;5071008;28;20150;-68
2023/09/11 07:00:27;;;;;;;12.15;11.65;;;;;;;;;;5070067;28;20511;-66
2023/09/11 07:02:52;;;;;;;12.60;12.00;;;;;;;;;;5067089;28;20023;-67
2023/09/11 07:05:18;;;;;;;12.40;11.80;;;;;;;;;;5067095;28;20142;-66
2023/09/11 07:07:44;;;;;;;11.90;11.40;;;;;;;;;;5069822;28;20033;-67
2023/09/11 07:10:17;;;;;;;12.02;11.52;;;;;;;;;;5070041;28;20521;-67
2023/09/11 07:12:43;;;;;;;12.25;11.75;;;;;;;;;;5067179;28;20078;-67
2023/09/11 07:15:08;;;;;;;11.95;11.45;;;;;;;;;;5066976;28;20028;-66
2023/09/11 07:17:34;;;;;;;12.10;11.60;;;;;;;;;;5067505;28;20040;-66
2023/09/11 07:19:59;;;;;;;12.00;11.50;;;;;;;;;;5065753;28;20884;-66
2023/09/11 07:22:24;;;;;;;12.20;11.70;;;;;;;;;;5067742;28;20867;-67
2023/09/11 07:24:49;;;;;;;12.10;11.60;;;;;;;;;;5068887;28;20273;-67
2023/09/11 07:27:15;;;;;;;12.17;11.67;;;;;;;;;;5065235;28;20359;-66
2023/09/11 07:29:40;;;;;;;12.10;11.60;;;;;;;;;;5069957;28;20273;-62
2023/09/11 07:32:06;;;;;;;12.05;11.55;;;;;;;;;;5080786;28;20359;-64
2023/09/11 07:34:31;;;;;;;12.00;11.50;;;;;;;;;;5080275;28;20012;-64
2023/09/11 07:36:57;;;;;;;12.40;11.90;;;;;;;;;;5081208;28;20028;-63
2023/09/11 07:39:22;;;;;;;12.07;11.57;;;;;;;;;;5086155;28;20284;-65
2023/09/11 07:41:48;;;;;;;12.20;11.70;;;;;;;;;;5085089;28;20797;-64
2023/09/11 07:44:13;;;;;;;12.13;11.63;;;;;;;;;;5085194;28;20051;-64
2023/09/11 07:46:38;;;;;;;11.90;11.40;;;;;;;;;;5081325;28;20027;-64
2023/09/11 07:49:04;;;;;;;12.00;11.50;;;;;;;;;;5083738;28;20380;-64
2023/09/11 07:51:29;;;;;;;12.05;11.55;;;;;;;;;;5075198;28;20843;-64
2023/09/11 07:53:55;;;;;;;12.05;11.55;;;;;;;;;;5070379;28;21572;-64
2023/09/11 07:56:20;;;;;;;12.30;11.70;;;;;;;;;;5071354;28;20032;-63
2023/09/11 07:58:50;;;;;;;12.20;11.70;;;;;;;;;;5070537;28;20360;-62
2023/09/11 08:01:15;;;;;;;12.07;11.57;;;;;;;;;;5074580;28;20394;-64
2023/09/11 08:03:41;;;;;;;11.88;11.38;;;;;;;;;;5069459;28;20025;-64
2023/09/11 08:06:06;;;;;;;11.98;11.48;;;;;;;;;;5070045;28;20103;-63
2023/09/11 08:08:32;;;;;;;12.15;11.65;;;;;;;;;;5066995;28;21974;-63
2023/09/11 08:10:57;;;;;;;12.10;11.60;;;;;;;;;;5074706;28;20112;-63
2023/09/11 08:13:22;;;;;;;12.23;11.73;;;;;;;;;;5070098;28;20573;-65
2023/09/11 08:15:48;;;;;;;12.75;12.15;;;;;;;;;;5080456;28;20027;-64
2023/09/11 08:18:13;;;;;;;12.15;11.65;;;;;;;;;;5079741;28;20032;-64
2023/09/11 08:20:43;;;;;;;12.63;12.02;;;;;;;;;;5083405;28;20151;-62
2023/09/11 08:23:08;;;;;;;12.18;11.68;;;;;;;;;;5084826;28;20074;-63
2023/09/11 08:25:33;;;;;;;12.25;11.75;;;;;;;;;;5079699;28;20125;-62
2023/09/11 08:27:59;;;;;;;12.57;11.98;;;;;;;;;;5085040;28;20036;-62
2023/09/11 08:30:24;;;;;;;12.10;11.60;;;;;;;;;;5079696;28;20501;-62
2023/09/11 08:32:49;;;;;;;12.13;11.63;;;;;;;;;;5086257;28;20279;-63
2023/09/11 08:35:15;;;;;;;12.15;11.65;;;;;;;;;;5079479;28;20023;-62
2023/09/11 08:37:40;;;;;;;12.48;11.90;;;;;;;;;;5082753;28;20024;-65
2023/09/11 08:40:06;;;;;;;11.85;11.35;;;;;;;;;;5081226;28;20376;-64
2023/09/11 08:42:31;;;;;;;11.70;11.20;;;;;;;;;;5080646;28;20369;-61
2023/09/11 08:44:57;;;;;;;11.85;11.35;;;;;;;;;;5086497;28;20043;-62
2023/09/11 08:47:28;;;;;;;12.23;11.73;;;;;;;;;;5078865;28;20028;-64
2023/09/11 08:49:55;;;;;;;12.18;11.68;;;;;;;;;;5079496;28;20024;-63
2023/09/11 08:52:21;;;;;;;12.27;11.77;;;;;;;;;;5076656;28;20422;-64
2023/09/11 08:54:49;;;;;;;12.20;11.70;;;;;;;;;;5086959;28;20102;-62
2023/09/11 08:57:15;;;;;;;12.05;11.55;;;;;;;;;;5083612;28;20378;-63
2023/09/11 08:59:43;;;;;;;12.43;11.85;;;;;;;;;;5079657;28;20031;-63
2023/09/11 09:02:08;;;;;;;12.10;11.60;;;;;;;;;;5086719;28;20028;-63
2023/09/11 09:04:35;;;;;;;11.90;11.40;;;;;;;;;;5081642;28;20035;-63
2023/09/11 09:07:01;;;;;;;12.05;11.55;;;;;;;;;;5084200;28;20101;-62
2023/09/11 09:09:26;;;;;;;12.10;11.60;;;;;;;;;;5083945;28;20164;-63
2023/09/11 09:11:52;;;;;;;12.15;11.65;;;;;;;;;;5081491;28;20048;-62
2023/09/11 09:14:20;;;;;;;11.90;11.40;;;;;;;;;;5075775;28;20025;-64
2023/09/11 09:16:46;;;;;;;12.23;11.73;;;;;;;;;;5080347;28;20023;-63
2023/09/11 09:19:12;;;;;;;11.95;11.45;;;;;;;;;;5083608;28;20030;-63
2023/09/11 09:21:57;;;;;;;11.98;11.48;;;;;;;;;;5080569;28;20022;-63
2023/09/11 09:24:23;;;;;;;12.10;11.60;;;;;;;;;;5080862;28;20573;-64
2023/09/11 09:26:58;;;;;;;12.13;11.63;;;;;;;;;;5083628;28;20488;-63
2023/09/11 09:29:24;;;;;;;11.77;11.27;;;;;;;;;;5083552;28;20149;-63
2023/09/11 09:31:50;;;;;;;12.30;11.80;;;;;;;;;;5078118;28;20114;-65
2023/09/11 09:34:15;;;;;;;12.13;11.63;;;;;;;;;;5085242;28;20024;-63
2023/09/11 09:36:50;;;;;;;11.95;11.45;;;;;;;;;;5083740;28;20539;-62
2023/09/11 09:39:15;;;;;;;12.18;11.68;;;;;;;;;;5083353;28;20023;-64
2023/09/11 09:41:51;;;;;;;12.13;11.63;;;;;;;;;;5079094;28;20024;-65
2023/09/11 09:44:33;;;;;;;11.95;11.45;;;;;;;;;;5078551;28;20119;-63
2023/09/11 09:47:15;;;;;;;12.38;11.85;;;;;;;;;;5075846;28;20027;-66
2023/09/11 09:49:44;;;;;;;12.23;11.73;;;;;;;;;;5080722;28;20118;-66
2023/09/11 09:52:10;;;;;;;11.75;11.25;;;;;;;;;;5081440;28;20020;-68
2023/09/11 09:54:43;;;;;;;12.02;11.52;;;;;;;;;;5079445;28;20074;-67
2023/09/11 09:57:10;;;;;;;12.45;11.88;;;;;;;;;;5081343;28;20024;-66
2023/09/11 09:59:36;;;;;;;11.98;11.48;;;;;;;;;;5077883;28;20511;-67
2023/09/11 10:02:01;;;;;;;12.35;11.80;;;;;;;;;;5078884;28;20099;-63
2023/09/11 10:04:26;;;;;;;12.05;11.55;;;;;;;;;;5078735;28;20135;-63
2023/09/11 10:06:56;;;;;;;12.13;11.63;;;;;;;;;;5082041;28;20118;-62
2023/09/11 10:09:22;;;;;;;11.85;11.35;;;;;;;;;;5077637;28;20354;-63
2023/09/11 10:11:47;;;;;;;12.27;11.77;;;;;;;;;;5082911;28;20660;-64
2023/09/11 10:14:13;;;;;;;12.70;12.10;;;;;;;;;;5082261;28;20558;-65
2023/09/11 10:16:38;;;;;;;12.23;11.73;;;;;;;;;;5082089;28;20028;-64
2023/09/11 10:19:04;;;;;;;12.27;11.77;;;;;;;;;;5078868;28;20027;-64
2023/09/11 10:21:29;;;;;;;12.10;11.60;;;;;;;;;;5081410;28;20031;-63
2023/09/11 10:23:55;;;;;;;12.35;11.80;;;;;;;;;;5078370;28;20028;-64
2023/09/11 10:26:25;;;;;;;12.02;11.52;;;;;;;;;;5080983;28;20052;-64
2023/09/11 10:28:51;;;;;;;12.00;11.50;;;;;;;;;;5082225;28;20024;-63
2023/09/11 10:31:21;;;;;;;12.50;11.90;;;;;;;;;;5081436;28;20062;-64
2023/09/11 10:33:49;;;;;;;12.70;12.10;;;;;;;;;;5074701;28;20053;-64
2023/09/11 10:36:17;;;;;;;12.77;12.18;;;;;;;;;;5071920;28;20055;-63
2023/09/11 10:38:44;;;;;;;12.57;11.98;;;;;;;;;;5077024;28;20017;-64
2023/09/11 10:41:10;;;;;;;12.20;11.70;;;;;;;;;;5078200;28;20071;-63
2023/09/11 10:43:36;;;;;;;12.27;11.77;;;;;;;;;;5085606;28;20189;-64
2023/09/11 10:46:28;;;;;;;12.30;11.80;;;;;;;;;;5081408;28;20084;-63
2023/09/11 10:48:53;;;;;;;12.10;11.60;;;;;;;;;;5081507;28;20040;-64
2023/09/11 10:51:19;;;;;;;11.98;11.48;;;;;;;;;;5080279;28;20038;-64
2023/09/11 10:53:47;;;;;;;11.98;11.48;;;;;;;;;;5079056;28;20030;-64
2023/09/11 10:56:13;;;;;;;12.27;11.77;;;;;;;;;;5076707;28;20040;-63
2023/09/11 10:58:39;;;;;;;12.23;11.70;;;;;;;;;;5080540;28;20153;-65
2023/09/11 11:01:05;;;;;;;12.00;11.50;;;;;;;;;;5080261;28;20024;-65
2023/09/11 11:03:31;;;;;;;12.00;11.50;;;;;;;;;;5080954;28;20035;-64
2023/09/11 11:06:00;;;;;;;11.95;11.45;;;;;;;;;;5077811;28;20044;-64
2023/09/11 11:08:25;;;;;;;12.55;11.95;;;;;;;;;;5078719;28;20107;-64
2023/09/11 11:10:51;;;;;;;11.85;11.35;;;;;;;;;;5078562;28;20499;-63
2023/09/11 11:13:17;;;;;;;12.10;11.60;;;;;;;;;;5078760;28;20832;-63
2023/09/11 11:15:42;;;;;;;12.48;11.88;;;;;;;;;;5082110;28;20072;-64
2023/09/11 11:18:15;;;;;;;12.00;11.50;;;;;;;;;;5079598;28;20387;-63
2023/09/11 11:20:59;;;;;;;12.57;11.98;;;;;;;;;;5087108;28;20505;-63
2023/09/11 11:23:25;;;;;;;11.98;11.48;;;;;;;;;;5079849;28;20399;-63
2023/09/11 11:25:50;;;;;;;12.15;11.65;;;;;;;;;;5079568;28;20471;-63
2023/09/11 11:28:16;;;;;;;12.23;11.70;;;;;;;;;;5086961;28;20054;-63
2023/09/11 11:30:47;;;;;;;12.10;11.60;;;;;;;;;;5085922;28;20470;-63
2023/09/11 11:33:14;;;;;;;11.70;11.20;;;;;;;;;;5083480;28;20073;-63
2023/09/11 11:35:44;;;;;;;11.90;11.40;;;;;;;;;;5087353;28;20044;-63
2023/09/11 11:38:09;;;;;;;11.80;11.30;;;;;;;;;;5085205;28;20058;-63
2023/09/11 11:40:35;;;;;;;12.00;11.50;;;;;;;;;;5081153;28;20744;-66
2023/09/11 11:43:00;;;;;;;11.35;10.85;;;;;;;;;;5084089;28;20026;-66
2023/09/11 11:45:26;;;;;;;11.80;11.30;;;;;;;;;;5087871;28;20020;-66
2023/09/11 11:47:51;;;;;;;11.50;11.00;;;;;;;;;;5084909;28;20020;-65
2023/09/11 11:50:18;;;;;;;11.82;11.32;;;;;;;;;;5081198;28;20399;-66
2023/09/11 11:52:43;;;;;;;11.25;10.75;;;;;;;;;;5084139;28;20438;-65
2023/09/11 11:55:19;;;;;;;11.05;10.55;;;;;;;;;;5087714;28;20057;-66
2023/09/11 11:57:50;;;;;;;11.52;11.02;;;;;;;;;;5086798;28;20463;-65
2023/09/11 12:00:16;;;;;;;11.57;11.07;;;;;;;;;;5081783;28;20016;-63
2023/09/11 12:02:41;;;;;;;11.60;11.10;;;;;;;;;;5087197;28;20028;-65
2023/09/11 12:05:11;;;;;;;11.50;11.00;;;;;;;;;;5075983;28;20055;-65
2023/09/11 12:07:36;;;;;;;11.77;11.27;;;;;;;;;;5086549;28;20031;-65
2023/09/11 12:10:01;;;;;;;12.02;11.52;;;;;;;;;;5085213;28;20475;-68
2023/09/11 12:12:27;;;;;;;11.30;10.80;;;;;;;;;;5083663;28;20020;-64
2023/09/11 12:14:53;;;;;;;11.50;11.00;;;;;;;;;;5085558;28;20035;-63
2023/09/11 12:17:18;;;;;;;11.60;11.10;;;;;;;;;;5081354;28;20031;-64
2023/09/11 12:19:44;;;;;;;11.65;11.15;;;;;;;;;;5082385;28;20028;-64
2023/09/11 12:22:09;;;;;;;11.65;11.15;;;;;;;;;;5088209;28;20033;-63
2023/09/11 12:24:34;;;;;;;11.95;11.45;;;;;;;;;;5084301;28;20027;-64
2023/09/11 12:27:00;;;;;;;11.63;11.13;;;;;;;;;;5087802;28;20048;-63
2023/09/11 12:29:27;;;;;;;11.93;11.43;;;;;;;;;;5084640;28;20044;-64
2023/09/11 12:31:52;;;;;;;12.10;11.60;;;;;;;;;;5077788;28;20036;-65
2023/09/11 12:34:18;;;;;;;11.98;11.48;;;;;;;;;;5080161;28;20536;-64
2023/09/11 12:36:43;;;;;;;11.70;11.20;;;;;;;;;;5083865;28;20080;-64
2023/09/11 12:39:09;;;;;;;11.80;11.30;;;;;;;;;;5084730;28;20040;-64
2023/09/11 12:41:34;;;;;;;11.32;10.82;;;;;;;;;;5083395;28;20157;-63
2023/09/11 12:44:00;;;;;;;11.75;11.25;;;;;;;;;;5089472;28;20069;-63
2023/09/11 12:46:25;;;;;;;11.90;11.40;;;;;;;;;;5083344;28;20028;-64
2023/09/11 12:48:51;;;;;;;11.77;11.27;;;;;;;;;;5081372;28;20506;-63
2023/09/11 12:51:17;;;;;;;12.15;11.65;;;;;;;;;;5084701;28;20028;-64
2023/09/11 12:53:44;;;;;;;11.95;11.45;;;;;;;;;;5084340;28;20050;-62
2023/09/11 12:56:09;;;;;;;11.95;11.45;;;;;;;;;;5082202;28;20387;-64
2023/09/11 12:58:37;;;;;;;11.82;11.32;;;;;;;;;;5084321;28;20031;-63
2023/09/11 13:01:03;;;;;;;11.80;11.30;;;;;;;;;;5080484;28;20392;-65
2023/09/11 13:03:28;;;;;;;11.70;11.20;;;;;;;;;;5077999;28;20020;-62
2023/09/11 13:05:54;;;;;;;11.70;11.20;;;;;;;;;;5087795;28;20078;-63
2023/09/11 13:08:19;;;;;;;12.00;11.50;;;;;;;;;;5080111;28;20378;-63
2023/09/11 13:10:45;;;;;;;11.90;11.40;;;;;;;;;;5082832;28;20019;-64
2023/09/11 13:13:10;;;;;;;11.98;11.48;;;;;;;;;;5083187;28;20031;-63
2023/09/11 13:15:36;;;;;;;11.50;11.00;;;;;;;;;;5085324;28;20483;-64
2023/09/11 13:18:02;;;;;;;11.63;11.13;;;;;;;;;;5083170;28;20158;-63
2023/09/11 13:20:27;;;;;;;12.60;12.00;;;;;;;;;;5072162;28;20035;-62
2023/09/11 13:22:52;;;;;;;11.73;11.23;;;;;;;;;;5074701;28;20102;-63
2023/09/11 13:25:18;;;;;;;11.93;11.43;;;;;;;;;;5083586;28;20502;-64
2023/09/11 13:27:43;;;;;;;11.75;11.25;;;;;;;;;;5083999;28;20092;-65
2023/09/11 13:30:09;;;;;;;12.00;11.50;;;;;;;;;;5083276;28;20098;-65
2023/09/11 13:32:37;;;;;;;11.52;11.02;;;;;;;;;;5069881;28;20540;-64
2023/09/11 13:35:03;;;;;;;11.45;10.95;;;;;;;;;;5074556;28;20016;-64
2023/09/11 13:37:28;;;;;;;11.90;11.40;;;;;;;;;;5085283;28;20031;-64
2023/09/11 13:39:54;;;;;;;11.90;11.40;;;;;;;;;;5082846;28;20044;-64
2023/09/11 13:42:23;;;;;;;11.90;11.40;;;;;;;;;;5081462;28;20095;-66
2023/09/11 13:44:50;;;;;;;11.80;11.30;;;;;;;;;;5078499;28;20958;-65
2023/09/11 13:47:15;;;;;;;11.90;11.40;;;;;;;;;;5085377;28;20028;-67
2023/09/11 13:49:40;;;;;;;11.88;11.38;;;;;;;;;;5088618;28;20410;-66
2023/09/11 13:52:06;;;;;;;11.77;11.27;;;;;;;;;;5075425;28;20103;-67
2023/09/11 13:54:31;;;;;;;11.75;11.25;;;;;;;;;;5079677;28;20031;-60
2023/09/11 13:56:56;;;;;;;11.48;10.98;;;;;;;;;;5085196;28;20020;-63
2023/09/11 13:59:22;;;;;;;12.20;11.70;;;;;;;;;;5084077;28;20035;-62
2023/09/11 14:01:47;;;;;;;11.98;11.48;;;;;;;;;;5077287;28;20039;-61
2023/09/11 14:04:14;;;;;;;11.90;11.40;;;;;;;;;;5079419;28;20028;-62
2023/09/11 14:06:39;;;;;;;12.00;11.50;;;;;;;;;;5078757;28;20034;-60
2023/09/11 14:09:05;;;;;;;11.30;10.80;;;;;;;;;;5084270;28;20418;-60
2023/09/11 14:11:31;;;;;;;12.15;11.65;;;;;;;;;;5080581;28;20043;-62
2023/09/11 14:13:56;;;;;;;11.40;10.90;;;;;;;;;;5076801;28;20020;-61